createdAt,value
2018-04-26T00:00:38.137Z,0
2018-04-26T00:01:38.693Z,0
2018-04-26T00:02:39.275Z,0
2018-04-26T00:03:39.815Z,0
2018-04-26T00:04:40.359Z,0
2018-04-26T00:05:40.905Z,0
2018-04-26T00:06:41.452Z,0
2018-04-26T00:07:41.996Z,0
2018-04-26T00:08:42.538Z,0
2018-04-26T00:09:43.084Z,0
2018-04-26T00:10:43.626Z,0
2018-04-26T00:11:44.176Z,0
2018-04-26T00:12:44.724Z,0
2018-04-26T00:13:45.273Z,0
2018-04-26T00:14:45.814Z,0
2018-04-26T00:15:46.355Z,0
2018-04-26T00:16:46.899Z,0
2018-04-26T00:17:47.457Z,0
2018-04-26T00:18:47.995Z,0
2018-04-26T00:19:48.540Z,0
2018-04-26T00:20:49.087Z,0
2018-04-26T00:21:49.637Z,0
2018-04-26T00:22:50.178Z,0
2018-04-26T00:23:50.768Z,0
2018-04-26T00:24:51.271Z,0
2018-04-26T00:25:51.824Z,0
2018-04-26T00:26:52.370Z,0
2018-04-26T00:27:52.916Z,0
2018-04-26T00:28:53.464Z,0
2018-04-26T00:29:54.009Z,0
2018-04-26T00:30:54.551Z,0
2018-04-26T00:31:55.092Z,0
2018-04-26T00:32:55.641Z,0
2018-04-26T00:33:56.188Z,0
2018-04-26T00:34:56.727Z,0
2018-04-26T00:35:57.274Z,0
2018-04-26T00:36:57.818Z,0
2018-04-26T00:37:58.361Z,0
2018-04-26T00:38:58.907Z,0
2018-04-26T00:39:59.449Z,0
2018-04-26T00:40:59.996Z,0
2018-04-26T00:42:00.535Z,0
2018-04-26T00:43:01.079Z,0
2018-04-26T00:44:01.622Z,0
2018-04-26T00:45:02.165Z,0
2018-04-26T00:46:02.705Z,0
2018-04-26T00:47:03.249Z,0
2018-04-26T00:48:03.845Z,0
2018-04-26T00:49:04.343Z,0
2018-04-26T00:50:04.891Z,0
2018-04-26T00:51:05.439Z,0
2018-04-26T00:52:06.025Z,0
2018-04-26T00:53:06.557Z,0
2018-04-26T00:54:07.101Z,0
2018-04-26T00:55:07.646Z,0
2018-04-26T00:56:08.194Z,0
2018-04-26T00:57:08.734Z,0
2018-04-26T00:58:09.278Z,0
2018-04-26T00:59:09.822Z,0
2018-04-26T01:00:10.361Z,0
2018-04-26T01:01:10.910Z,0
2018-04-26T01:02:11.457Z,0
2018-04-26T01:03:12.004Z,0
2018-04-26T01:04:12.549Z,0
2018-04-26T01:05:13.090Z,0
2018-04-26T01:06:13.636Z,0
2018-04-26T01:07:14.181Z,0
2018-04-26T01:08:14.731Z,0
2018-04-26T01:09:15.269Z,0
2018-04-26T01:10:15.812Z,0
2018-04-26T01:11:16.358Z,0
2018-04-26T01:12:16.907Z,0
2018-04-26T01:13:17.450Z,0
2018-04-26T01:14:17.997Z,0
2018-04-26T01:15:18.539Z,0
2018-04-26T01:16:19.087Z,0
2018-04-26T01:17:19.632Z,0
2018-04-26T01:18:20.173Z,0
2018-04-26T01:19:20.715Z,0
2018-04-26T01:20:21.255Z,0
2018-04-26T01:21:21.801Z,0
2018-04-26T01:22:22.350Z,0
2018-04-26T01:23:22.897Z,0
2018-04-26T01:24:23.465Z,0
2018-04-26T01:25:24.001Z,0
2018-04-26T01:26:24.545Z,0
2018-04-26T01:27:25.094Z,0
2018-04-26T01:28:25.635Z,0
2018-04-26T01:29:26.185Z,0
2018-04-26T01:30:26.723Z,0
2018-04-26T01:31:27.265Z,0
2018-04-26T01:32:27.807Z,0
2018-04-26T01:33:28.346Z,0
2018-04-26T01:34:28.896Z,0
2018-04-26T01:35:29.434Z,0
2018-04-26T01:36:29.979Z,0
2018-04-26T01:37:30.548Z,0
2018-04-26T01:38:31.099Z,0
2018-04-26T01:39:31.653Z,0
2018-04-26T01:40:32.192Z,0
2018-04-26T01:41:32.736Z,0
2018-04-26T01:42:33.277Z,0
2018-04-26T01:43:33.822Z,0
2018-04-26T01:44:34.365Z,0
2018-04-26T01:45:34.911Z,0
2018-04-26T01:46:35.453Z,0
2018-04-26T01:47:35.995Z,0
2018-04-26T01:48:36.545Z,0
2018-04-26T01:49:37.088Z,0
2018-04-26T01:50:37.636Z,0
2018-04-26T01:51:38.183Z,0
2018-04-26T01:52:38.728Z,0
2018-04-26T01:53:39.275Z,0
2018-04-26T01:54:39.818Z,0
2018-04-26T01:55:40.364Z,0
2018-04-26T01:56:40.910Z,0
2018-04-26T01:57:41.477Z,0
2018-04-26T01:58:41.998Z,0
2018-04-26T01:59:42.545Z,0
2018-04-26T02:00:43.089Z,0
2018-04-26T02:01:43.637Z,0
2018-04-26T02:02:44.179Z,0
2018-04-26T02:03:44.721Z,0
2018-04-26T02:04:45.265Z,0
2018-04-26T02:05:45.807Z,0
2018-04-26T02:06:46.350Z,0
2018-04-26T02:07:46.897Z,0
2018-04-26T02:08:47.445Z,0
2018-04-26T02:09:47.988Z,0
2018-04-26T02:10:48.533Z,0
2018-04-26T02:11:49.283Z,0
2018-04-26T02:12:49.835Z,0
2018-04-26T02:13:50.387Z,0
2018-04-26T02:14:50.922Z,0
2018-04-26T02:15:51.471Z,0
2018-04-26T02:16:52.008Z,0
2018-04-26T02:17:52.552Z,0
2018-04-26T02:18:53.102Z,0
2018-04-26T02:19:53.645Z,0
2018-04-26T02:20:54.184Z,0
2018-04-26T02:21:54.738Z,0
2018-04-26T02:22:55.286Z,0
2018-04-26T02:23:55.828Z,0
2018-04-26T02:24:56.382Z,0
2018-04-26T02:25:56.922Z,0
2018-04-26T02:26:57.464Z,0
2018-04-26T02:27:58.012Z,0
2018-04-26T02:28:58.556Z,0
2018-04-26T02:29:59.097Z,0
2018-04-26T02:30:59.651Z,0
2018-04-26T02:32:00.196Z,0
2018-04-26T02:33:00.733Z,0
2018-04-26T02:34:01.274Z,0
2018-04-26T02:35:01.822Z,0
2018-04-26T02:36:02.370Z,0
2018-04-26T02:37:02.919Z,0
2018-04-26T02:38:03.459Z,0
2018-04-26T02:39:03.997Z,0
2018-04-26T02:40:04.625Z,0
2018-04-26T02:41:05.083Z,0
2018-04-26T02:42:05.629Z,0
2018-04-26T02:43:06.169Z,0
2018-04-26T02:44:06.708Z,0
2018-04-26T02:45:07.253Z,0
2018-04-26T02:46:07.795Z,0
2018-04-26T02:47:08.341Z,0
2018-04-26T02:48:08.885Z,0
2018-04-26T02:49:09.431Z,0
2018-04-26T02:50:09.993Z,0
2018-04-26T02:51:10.538Z,0
2018-04-26T02:52:11.082Z,0
2018-04-26T02:53:11.638Z,0
2018-04-26T02:54:12.182Z,0
2018-04-26T02:55:12.734Z,0
2018-04-26T02:56:13.282Z,0
2018-04-26T02:57:13.822Z,0
2018-04-26T02:58:14.369Z,0
2018-04-26T02:59:14.913Z,0
2018-04-26T03:00:15.453Z,0
2018-04-26T03:01:16.001Z,0
2018-04-26T03:02:16.551Z,0
2018-04-26T03:03:17.100Z,0
2018-04-26T03:04:17.635Z,0
2018-04-26T03:05:18.188Z,0
2018-04-26T03:06:18.727Z,0
2018-04-26T03:07:19.277Z,0
2018-04-26T03:08:19.879Z,0
2018-04-26T03:09:20.369Z,0
2018-04-26T03:10:20.915Z,0
2018-04-26T03:11:21.482Z,0
2018-04-26T03:12:22.025Z,0
2018-04-26T03:13:22.592Z,0
2018-04-26T03:14:23.122Z,0
2018-04-26T03:15:23.667Z,0
2018-04-26T03:16:24.214Z,0
2018-04-26T03:17:24.758Z,0
2018-04-26T03:18:25.304Z,0
2018-04-26T03:19:25.851Z,0
2018-04-26T03:20:26.396Z,0
2018-04-26T03:21:26.942Z,0
2018-04-26T03:22:27.491Z,0
2018-04-26T03:23:28.039Z,0
2018-04-26T03:24:28.578Z,0
2018-04-26T03:25:29.128Z,0
2018-04-26T03:26:29.669Z,0
2018-04-26T03:27:30.214Z,0
2018-04-26T03:28:30.762Z,0
2018-04-26T03:29:31.306Z,0
2018-04-26T03:30:31.855Z,0
2018-04-26T03:31:32.397Z,0
2018-04-26T03:32:32.942Z,0
2018-04-26T03:33:33.488Z,0
2018-04-26T03:34:34.036Z,0
2018-04-26T03:35:34.576Z,0
2018-04-26T03:36:35.126Z,0
2018-04-26T03:37:35.669Z,0
2018-04-26T03:38:36.207Z,4
2018-04-26T03:39:36.753Z,4
2018-04-26T03:40:37.295Z,0
2018-04-26T03:41:37.839Z,4
2018-04-26T03:42:38.382Z,4
2018-04-26T03:43:38.931Z,4
2018-04-26T03:44:39.474Z,4
2018-04-26T03:45:40.017Z,8
2018-04-26T03:46:40.561Z,4
2018-04-26T03:47:41.105Z,4
2018-04-26T03:48:41.648Z,4
2018-04-26T03:49:42.193Z,4
2018-04-26T03:50:42.738Z,4
2018-04-26T03:51:43.288Z,4
2018-04-26T03:52:43.826Z,8
2018-04-26T03:53:44.368Z,12
2018-04-26T03:54:44.911Z,12
2018-04-26T03:55:45.458Z,20
2018-04-26T03:56:46.011Z,24
2018-04-26T03:57:46.555Z,28
2018-04-26T03:58:47.104Z,36
2018-04-26T03:59:47.643Z,40
2018-04-26T04:00:48.189Z,48
2018-04-26T04:01:48.734Z,60
2018-04-26T04:02:49.283Z,68
2018-04-26T04:03:49.828Z,80
2018-04-26T04:04:50.371Z,96
2018-04-26T04:05:50.915Z,92
2018-04-26T04:06:51.458Z,96
2018-04-26T04:07:52.003Z,108
2018-04-26T04:08:52.556Z,128
2018-04-26T04:09:53.097Z,140
2018-04-26T04:10:53.645Z,156
2018-04-26T04:11:54.187Z,196
2018-04-26T04:12:54.734Z,224
2018-04-26T04:13:55.329Z,236
2018-04-26T04:14:55.818Z,248
2018-04-26T04:15:56.362Z,280
2018-04-26T04:16:56.909Z,312
2018-04-26T04:17:57.454Z,340
2018-04-26T04:18:58.003Z,356
2018-04-26T04:19:58.553Z,400
2018-04-26T04:20:59.102Z,408
2018-04-26T04:21:59.642Z,400
2018-04-26T04:23:00.196Z,408
2018-04-26T04:24:00.742Z,440
2018-04-26T04:25:01.285Z,416
2018-04-26T04:26:01.837Z,420
2018-04-26T04:27:02.390Z,440
2018-04-26T04:28:02.955Z,536
2018-04-26T04:29:03.487Z,648
2018-04-26T04:30:04.090Z,708
2018-04-26T04:31:04.638Z,784
2018-04-26T04:32:05.179Z,888
2018-04-26T04:33:05.728Z,956
2018-04-26T04:34:06.271Z,1040
2018-04-26T04:35:06.820Z,1124
2018-04-26T04:36:07.371Z,1200
2018-04-26T04:37:07.925Z,1276
2018-04-26T04:38:08.477Z,1352
2018-04-26T04:39:09.026Z,1444
2018-04-26T04:40:09.577Z,1552
2018-04-26T04:41:10.125Z,1724
2018-04-26T04:42:10.677Z,2176
2018-04-26T04:43:11.232Z,2256
2018-04-26T04:44:11.787Z,2068
2018-04-26T04:45:12.360Z,2048
2018-04-26T04:46:12.887Z,2144
2018-04-26T04:47:13.434Z,2368
2018-04-26T04:48:13.979Z,2724
2018-04-26T04:49:14.533Z,3048
2018-04-26T04:50:15.082Z,2880
2018-04-26T04:51:15.632Z,3092
2018-04-26T04:52:16.176Z,3252
2018-04-26T04:53:16.728Z,2980
2018-04-26T04:54:17.280Z,2868
2018-04-26T04:55:17.829Z,3008
2018-04-26T04:56:18.381Z,3164
2018-04-26T04:57:18.931Z,3204
2018-04-26T04:58:19.520Z,3388
2018-04-26T04:59:20.035Z,3532
2018-04-26T05:00:20.589Z,3540
2018-04-26T05:01:21.132Z,3648
2018-04-26T05:02:21.678Z,3816
2018-04-26T05:03:22.282Z,4072
2018-04-26T05:04:22.782Z,4512
2018-04-26T05:05:23.335Z,6324
2018-04-26T05:06:23.885Z,8996
2018-04-26T05:07:24.502Z,8840
2018-04-26T05:08:24.987Z,7712
2018-04-26T05:09:25.537Z,6780
2018-04-26T05:10:26.101Z,5720
2018-04-26T05:11:26.681Z,4820
2018-04-26T05:12:27.226Z,4544
2018-04-26T05:13:27.807Z,4456
2018-04-26T05:14:28.356Z,4520
2018-04-26T05:15:28.910Z,3536
2018-04-26T05:16:29.459Z,2832
2018-04-26T05:17:30.014Z,2512
2018-04-26T05:18:30.569Z,2492
2018-04-26T05:19:31.130Z,2292
2018-04-26T05:20:31.670Z,2332
2018-04-26T05:21:32.223Z,3300
2018-04-26T05:22:32.771Z,3928
2018-04-26T05:23:33.322Z,3412
2018-04-26T05:24:33.872Z,3100
2018-04-26T05:25:34.484Z,3220
2018-04-26T05:26:34.967Z,3200
2018-04-26T05:27:35.514Z,3420
2018-04-26T05:28:36.070Z,4036
2018-04-26T05:29:36.620Z,4468
2018-04-26T05:30:37.172Z,4108
2018-04-26T05:31:37.723Z,4256
2018-04-26T05:32:38.274Z,4876
2018-04-26T05:33:38.859Z,5724
2018-04-26T05:34:39.373Z,6188
2018-04-26T05:35:39.925Z,6532
2018-04-26T05:36:40.477Z,7384
2018-04-26T05:37:41.025Z,7576
2018-04-26T05:38:41.582Z,6540
2018-04-26T05:39:42.125Z,5876
2018-04-26T05:40:42.703Z,6120
2018-04-26T05:41:43.220Z,6308
2018-04-26T05:42:43.771Z,6180
2018-04-26T05:43:44.325Z,6224
2018-04-26T05:44:44.873Z,7028
2018-04-26T05:45:45.451Z,7916
2018-04-26T05:46:46.005Z,8320
2018-04-26T05:47:46.558Z,8356
2018-04-26T05:48:47.110Z,8820
2018-04-26T05:49:47.666Z,9412
2018-04-26T05:50:48.218Z,9212
2018-04-26T05:51:48.768Z,10132
2018-04-26T05:52:49.321Z,8408
2018-04-26T05:53:49.875Z,7880
2018-04-26T05:54:50.426Z,8648
2018-04-26T05:55:51.076Z,9128
2018-04-26T05:56:51.529Z,9792
2018-04-26T05:57:52.083Z,9620
2018-04-26T05:58:52.637Z,8880
2018-04-26T05:59:53.194Z,8940
2018-04-26T06:00:53.750Z,9428
2018-04-26T06:01:54.310Z,10044
2018-04-26T06:02:54.865Z,11872
2018-04-26T06:03:55.418Z,12628
2018-04-26T06:04:55.981Z,9828
2018-04-26T06:05:56.537Z,7232
2018-04-26T06:06:57.090Z,6796
2018-04-26T06:07:57.651Z,7768
2018-04-26T06:08:58.201Z,9532
2018-04-26T06:09:58.752Z,9876
2018-04-26T06:10:59.303Z,9172
2018-04-26T06:11:59.861Z,9600
2018-04-26T06:13:00.418Z,10232
2018-04-26T06:14:00.979Z,10660
2018-04-26T06:15:01.534Z,11252
2018-04-26T06:16:02.095Z,10624
2018-04-26T06:17:02.716Z,9152
2018-04-26T06:18:03.211Z,8836
2018-04-26T06:19:03.776Z,10560
2018-04-26T06:20:04.332Z,12468
2018-04-26T06:21:04.891Z,12164
2018-04-26T06:22:05.454Z,10864
2018-04-26T06:23:06.013Z,11084
2018-04-26T06:24:06.586Z,11496
2018-04-26T06:25:07.242Z,12356
2018-04-26T06:26:07.704Z,11892
2018-04-26T06:27:08.259Z,11300
2018-04-26T06:28:08.817Z,10972
2018-04-26T06:29:09.377Z,10800
2018-04-26T06:30:09.926Z,10660
2018-04-26T06:31:10.632Z,12008
2018-04-26T06:32:11.033Z,23872
2018-04-26T06:33:11.587Z,16728
2018-04-26T06:34:12.142Z,24832
2018-04-26T06:35:12.696Z,27840
2018-04-26T06:36:13.252Z,17636
2018-04-26T06:37:13.810Z,16852
2018-04-26T06:38:14.369Z,19360
2018-04-26T06:39:14.928Z,16528
2018-04-26T06:40:15.487Z,13200
2018-04-26T06:41:16.049Z,13872
2018-04-26T06:42:16.608Z,15436
2018-04-26T06:43:17.158Z,19200
2018-04-26T06:44:17.719Z,25312
2018-04-26T06:45:18.275Z,34048
2018-04-26T06:46:18.829Z,29088
2018-04-26T06:47:19.393Z,15172
2018-04-26T06:48:19.948Z,11236
2018-04-26T06:49:20.508Z,11416
2018-04-26T06:50:21.073Z,12600
2018-04-26T06:51:21.626Z,13720
2018-04-26T06:52:22.183Z,13000
2018-04-26T06:53:22.801Z,27968
2018-04-26T06:54:23.297Z,35648
2018-04-26T06:55:23.855Z,33920
2018-04-26T06:56:24.417Z,19552
2018-04-26T06:57:24.974Z,20128
2018-04-26T06:58:25.537Z,25920
2018-04-26T06:59:26.096Z,28992
2018-04-26T07:00:26.679Z,33568
2018-04-26T07:01:27.216Z,12900
2018-04-26T07:02:27.777Z,11592
2018-04-26T07:03:28.338Z,11280
2018-04-26T07:04:28.897Z,11020
2018-04-26T07:05:29.459Z,10892
2018-04-26T07:06:30.021Z,11616
2018-04-26T07:07:30.578Z,13100
2018-04-26T07:08:31.141Z,14088
2018-04-26T07:09:31.709Z,14776
2018-04-26T07:10:32.264Z,13916
2018-04-26T07:11:32.825Z,12892
2018-04-26T07:12:33.380Z,10376
2018-04-26T07:13:33.944Z,9508
2018-04-26T07:14:34.504Z,12132
2018-04-26T07:15:35.059Z,12876
2018-04-26T07:16:35.636Z,11816
2018-04-26T07:17:36.193Z,10024
2018-04-26T07:18:36.761Z,12524
2018-04-26T07:19:37.322Z,13412
2018-04-26T07:20:37.877Z,13608
2018-04-26T07:21:38.439Z,14284
2018-04-26T07:22:38.992Z,16424
2018-04-26T07:23:39.551Z,23200
2018-04-26T07:24:40.109Z,34464
2018-04-26T07:25:40.665Z,36736
2018-04-26T07:26:41.223Z,20448
2018-04-26T07:27:41.781Z,16072
2018-04-26T07:28:42.349Z,15568
2018-04-26T07:29:42.907Z,18036
2018-04-26T07:30:43.465Z,18752
2018-04-26T07:31:44.024Z,17776
2018-04-26T07:32:44.592Z,16908
2018-04-26T07:33:45.154Z,18160
2018-04-26T07:34:45.715Z,21792
2018-04-26T07:35:46.268Z,25440
2018-04-26T07:36:46.840Z,28416
2018-04-26T07:37:47.400Z,46944
2018-04-26T07:38:47.956Z,23904
2018-04-26T07:39:48.510Z,21472
2018-04-26T07:40:49.061Z,21408
2018-04-26T07:41:49.626Z,22496
2018-04-26T07:42:50.182Z,22432
2018-04-26T07:43:50.743Z,23072
2018-04-26T07:44:51.371Z,26144
2018-04-26T07:45:51.849Z,27904
2018-04-26T07:46:52.426Z,27488
2018-04-26T07:47:52.969Z,25408
2018-04-26T07:48:53.524Z,23520
2018-04-26T07:49:54.088Z,23264
2018-04-26T07:50:54.640Z,23264
2018-04-26T07:51:55.201Z,23616
2018-04-26T07:52:55.752Z,24768
2018-04-26T07:53:56.313Z,25600
2018-04-26T07:54:56.882Z,26400
2018-04-26T07:55:57.437Z,62048
2018-04-26T07:56:57.998Z,36128
2018-04-26T07:57:58.553Z,31392
2018-04-26T07:58:59.123Z,36032
2018-04-26T07:59:59.686Z,62272
2018-04-26T08:01:00.246Z,40736
2018-04-26T08:02:00.805Z,29984
2018-04-26T08:03:01.361Z,30272
2018-04-26T08:04:01.922Z,32384
2018-04-26T08:05:02.487Z,38400
2018-04-26T08:06:03.047Z,30240
2018-04-26T08:07:03.610Z,77952
2018-04-26T08:08:04.174Z,33440
2018-04-26T08:09:04.740Z,30528
2018-04-26T08:10:05.329Z,28160
2018-04-26T08:11:05.875Z,33568
2018-04-26T08:12:06.445Z,44960
2018-04-26T08:13:07.000Z,74432
2018-04-26T08:14:07.576Z,79328
2018-04-26T08:15:08.154Z,80960
2018-04-26T08:16:08.839Z,75296
2018-04-26T08:17:09.401Z,82976
2018-04-26T08:18:09.964Z,29088
2018-04-26T08:19:10.533Z,23616
2018-04-26T08:20:11.100Z,54080
2018-04-26T08:21:11.672Z,48512
2018-04-26T08:22:12.240Z,34432
2018-04-26T08:23:12.820Z,54656
2018-04-26T08:24:13.395Z,74016
2018-04-26T08:25:13.970Z,19640
2018-04-26T08:26:14.539Z,71584
2018-04-26T08:27:15.114Z,72544
2018-04-26T08:28:15.691Z,76192
2018-04-26T08:29:16.261Z,79968
2018-04-26T08:30:16.843Z,83616
2018-04-26T08:31:17.456Z,83008
2018-04-26T08:32:18.021Z,89152
2018-04-26T08:33:18.586Z,91648
2018-04-26T08:34:19.168Z,92000
2018-04-26T08:35:19.753Z,91840
2018-04-26T08:36:20.323Z,34208
2018-04-26T08:37:20.901Z,26944
2018-04-26T08:38:21.475Z,22144
2018-04-26T08:39:22.042Z,18144
2018-04-26T08:40:22.616Z,14592
2018-04-26T08:41:23.181Z,12788
2018-04-26T08:42:23.752Z,12372
2018-04-26T08:43:24.315Z,12724
2018-04-26T08:44:24.885Z,14140
2018-04-26T08:45:25.516Z,14140
2018-04-26T08:46:26.013Z,12500
2018-04-26T08:47:26.574Z,12000
2018-04-26T08:48:27.148Z,15144
2018-04-26T08:49:27.702Z,20640
2018-04-26T08:50:28.270Z,24704
2018-04-26T08:51:28.834Z,28640
2018-04-26T08:52:29.458Z,32864
2018-04-26T08:53:30.038Z,75424
2018-04-26T08:54:30.604Z,57184
2018-04-26T08:55:31.169Z,50336
2018-04-26T08:56:31.725Z,72864
2018-04-26T08:57:32.285Z,77920
2018-04-26T08:58:32.850Z,78304
2018-04-26T08:59:33.419Z,82496
2018-04-26T09:00:33.981Z,25888
2018-04-26T09:01:34.607Z,18472
2018-04-26T09:02:35.163Z,80736
2018-04-26T09:03:35.738Z,67968
2018-04-26T09:04:36.317Z,63488
2018-04-26T09:05:36.886Z,67936
2018-04-26T09:06:37.538Z,93440
2018-04-26T09:07:38.016Z,33728
2018-04-26T09:08:38.584Z,28960
2018-04-26T09:09:39.149Z,18096
2018-04-26T09:10:39.707Z,16136
2018-04-26T09:11:40.274Z,23744
2018-04-26T09:12:40.838Z,61344
2018-04-26T09:13:41.395Z,91328
2018-04-26T09:14:41.959Z,87936
2018-04-26T09:15:42.603Z,86304
2018-04-26T09:16:43.101Z,24352
2018-04-26T09:17:43.686Z,60288
2018-04-26T09:18:44.250Z,31456
2018-04-26T09:19:44.820Z,32480
2018-04-26T09:20:45.391Z,91872
2018-04-26T09:21:45.963Z,102912
2018-04-26T09:22:46.530Z,43552
2018-04-26T09:23:47.095Z,41088
2018-04-26T09:24:47.656Z,29216
2018-04-26T09:25:48.235Z,29920
2018-04-26T09:26:48.789Z,31008
2018-04-26T09:27:49.366Z,32384
2018-04-26T09:28:49.934Z,88768
2018-04-26T09:29:50.494Z,106848
2018-04-26T09:30:51.061Z,53312
2018-04-26T09:31:51.620Z,37440
2018-04-26T09:32:52.189Z,112640
2018-04-26T09:33:52.756Z,38816
2018-04-26T09:34:53.320Z,35104
2018-04-26T09:35:53.880Z,36704
2018-04-26T09:36:54.443Z,107872
2018-04-26T09:37:55.014Z,24960
2018-04-26T09:38:55.610Z,24960
2018-04-26T09:39:56.177Z,34112
2018-04-26T09:40:56.747Z,99104
2018-04-26T09:41:57.323Z,114176
2018-04-26T09:42:57.886Z,84832
2018-04-26T09:43:58.463Z,107744
2018-04-26T09:44:59.034Z,41536
2018-04-26T09:45:59.720Z,41472
2018-04-26T09:47:00.314Z,39936
2018-04-26T09:48:00.860Z,39104
2018-04-26T09:49:01.419Z,38112
2018-04-26T09:50:01.980Z,42432
2018-04-26T09:51:02.555Z,39520
2018-04-26T09:52:03.128Z,38720
2018-04-26T09:53:03.700Z,44288
2018-04-26T09:54:04.267Z,43072
2018-04-26T09:55:05.038Z,39456
2018-04-26T09:56:05.616Z,32256
2018-04-26T09:57:06.191Z,26688
2018-04-26T09:58:06.764Z,31040
2018-04-26T09:59:07.344Z,22592
2018-04-26T10:00:07.921Z,20736
2018-04-26T10:01:08.495Z,19552
2018-04-26T10:02:09.066Z,19552
2018-04-26T10:03:09.627Z,21216
2018-04-26T10:04:10.202Z,24672
2018-04-26T10:05:10.779Z,29504
2018-04-26T10:06:11.350Z,35328
2018-04-26T10:07:11.928Z,42944
2018-04-26T10:08:12.495Z,56896
2018-04-26T10:09:13.066Z,120832
2018-04-26T10:11:29.076Z,111072
2018-04-26T10:12:29.771Z,103264
2018-04-26T10:13:30.349Z,104160
2018-04-26T10:14:30.932Z,107200
2018-04-26T10:15:31.516Z,113952
2018-04-26T10:16:32.100Z,51008
2018-04-26T10:17:32.685Z,71808
2018-04-26T10:18:33.262Z,55520
2018-04-26T10:19:33.845Z,81760
2018-04-26T10:20:34.422Z,49216
2018-04-26T10:21:34.999Z,43040
2018-04-26T10:22:35.571Z,43936
2018-04-26T10:23:36.151Z,38144
2018-04-26T10:24:36.735Z,110912
2018-04-26T10:25:37.302Z,41632
2018-04-26T10:26:37.882Z,25280
2018-04-26T10:27:38.460Z,25344
2018-04-26T10:28:39.038Z,25088
2018-04-26T10:29:39.620Z,24704
2018-04-26T10:30:40.202Z,24480
2018-04-26T10:31:40.980Z,25056
2018-04-26T10:32:41.562Z,26464
2018-04-26T10:33:42.139Z,29312
2018-04-26T10:34:42.946Z,32992
2018-04-26T10:35:43.510Z,34176
2018-04-26T10:36:44.089Z,34848
2018-04-26T10:37:44.670Z,37504
2018-04-26T10:38:45.257Z,42144
2018-04-26T10:39:45.835Z,46336
2018-04-26T10:40:46.613Z,49600
2018-04-26T10:41:47.178Z,41472
2018-04-26T10:42:47.760Z,40160
2018-04-26T10:43:48.460Z,36128
2018-04-26T10:44:49.051Z,32992
2018-04-26T10:45:49.617Z,32096
2018-04-26T10:46:50.201Z,33440
2018-04-26T10:47:50.766Z,35968
2018-04-26T10:48:51.340Z,37856
2018-04-26T10:49:51.919Z,43264
2018-04-26T10:50:52.492Z,104928
2018-04-26T10:51:53.067Z,36928
2018-04-26T10:52:53.693Z,91008
2018-04-26T10:53:54.224Z,126240
2018-04-26T10:54:54.789Z,128224
2018-04-26T10:55:55.366Z,123616
2018-04-26T10:56:55.941Z,51424
2018-04-26T10:57:56.517Z,91200
2018-04-26T10:58:57.078Z,124224
2018-04-26T10:59:57.661Z,105632
2018-04-26T11:00:58.445Z,72160
2018-04-26T11:01:59.030Z,62912
2018-04-26T11:02:59.614Z,45856
2018-04-26T11:04:00.177Z,44992
2018-04-26T11:05:00.757Z,43904
2018-04-26T11:06:01.343Z,42560
2018-04-26T11:07:01.925Z,42432
2018-04-26T11:08:02.506Z,37568
2018-04-26T11:09:03.088Z,37568
2018-04-26T11:10:03.672Z,42880
2018-04-26T11:11:04.241Z,49888
2018-04-26T11:12:05.039Z,78112
2018-04-26T11:13:05.629Z,106816
2018-04-26T11:14:06.206Z,126624
2018-04-26T11:15:06.835Z,69088
2018-04-26T11:16:07.404Z,104448
2018-04-26T11:17:08.046Z,42240
2018-04-26T11:18:08.572Z,115552
2018-04-26T11:19:09.154Z,42368
2018-04-26T11:20:09.736Z,122912
2018-04-26T11:21:10.524Z,126528
2018-04-26T11:22:11.098Z,123584
2018-04-26T11:23:11.675Z,120160
2018-04-26T11:24:12.260Z,115040
2018-04-26T11:25:12.841Z,56192
2018-04-26T11:26:13.413Z,26720
2018-04-26T11:27:13.993Z,22688
2018-04-26T11:28:14.580Z,24032
2018-04-26T11:29:15.193Z,29824
2018-04-26T11:30:15.920Z,32192
2018-04-26T11:31:16.504Z,33504
2018-04-26T11:32:17.082Z,30464
2018-04-26T11:33:17.650Z,25792
2018-04-26T11:34:18.222Z,22656
2018-04-26T11:35:18.784Z,22912
2018-04-26T11:36:19.484Z,26400
2018-04-26T11:37:20.060Z,31936
2018-04-26T11:38:20.637Z,39360
2018-04-26T11:39:21.421Z,113824
2018-04-26T11:40:21.971Z,44608
2018-04-26T11:41:22.550Z,42272
2018-04-26T11:42:23.125Z,43616
2018-04-26T11:43:23.703Z,44160
2018-04-26T11:44:24.285Z,79360
2018-04-26T11:45:24.859Z,75808
2018-04-26T11:46:25.424Z,108768
2018-04-26T11:47:25.998Z,133344
2018-04-26T11:48:26.583Z,53184
2018-04-26T11:49:27.162Z,123712
2018-04-26T11:50:27.743Z,108896
2018-04-26T11:51:28.327Z,102912
2018-04-26T11:52:28.924Z,100896
2018-04-26T11:53:29.464Z,110656
2018-04-26T11:54:30.031Z,100256
2018-04-26T11:55:30.612Z,116352
2018-04-26T11:56:31.175Z,112128
2018-04-26T11:57:31.750Z,113312
2018-04-26T11:58:32.327Z,115136
2018-04-26T11:59:32.914Z,117568
2018-04-26T12:00:33.498Z,120544
2018-04-26T12:01:34.062Z,123744
2018-04-26T12:02:34.682Z,123456
2018-04-26T12:03:35.211Z,39456
2018-04-26T12:04:35.788Z,40512
2018-04-26T12:05:36.359Z,46720
2018-04-26T12:06:36.927Z,63360
2018-04-26T12:07:37.508Z,135520
2018-04-26T12:08:38.076Z,104480
2018-04-26T12:09:38.664Z,56832
2018-04-26T12:10:39.246Z,107648
2018-04-26T12:11:39.825Z,108128
2018-04-26T12:12:40.422Z,111904
2018-04-26T12:13:40.997Z,110784
2018-04-26T12:14:41.585Z,25664
2018-04-26T12:15:42.161Z,40736
2018-04-26T12:16:42.727Z,106976
2018-04-26T12:17:43.302Z,22912
2018-04-26T12:18:43.882Z,22016
2018-04-26T12:19:44.459Z,18672
2018-04-26T12:20:45.045Z,16400
2018-04-26T12:21:45.624Z,18180
2018-04-26T12:22:46.404Z,23552
2018-04-26T12:23:46.989Z,52992
2018-04-26T12:24:47.572Z,29344
2018-04-26T12:25:48.150Z,28576
2018-04-26T12:26:48.733Z,116544
2018-04-26T12:27:49.308Z,43200
2018-04-26T12:28:49.885Z,120064
2018-04-26T12:29:50.470Z,111136
2018-04-26T12:30:51.028Z,105088
2018-04-26T12:31:51.608Z,98976
2018-04-26T12:32:52.179Z,101152
2018-04-26T12:33:52.759Z,105184
2018-04-26T12:34:53.338Z,110656
2018-04-26T12:35:54.027Z,112704
2018-04-26T12:36:54.798Z,110848
2018-04-26T12:37:55.365Z,35040
2018-04-26T12:38:55.932Z,38624
2018-04-26T12:39:56.505Z,35168
2018-04-26T12:40:57.082Z,29152
2018-04-26T12:41:57.666Z,93728
2018-04-26T12:42:58.243Z,127040
2018-04-26T12:43:58.810Z,64192
2018-04-26T12:44:59.391Z,102624
2018-04-26T12:45:59.973Z,89440
2018-04-26T12:47:00.558Z,86976
2018-04-26T12:48:01.137Z,65504
2018-04-26T12:49:01.926Z,24224
2018-04-26T12:50:02.832Z,105920
2018-04-26T12:51:03.413Z,104832
2018-04-26T12:52:03.992Z,102176
2018-04-26T12:53:04.695Z,103104
2018-04-26T12:54:05.269Z,76064
2018-04-26T12:55:05.853Z,73024
2018-04-26T12:56:06.433Z,35552
2018-04-26T12:57:07.009Z,37888
2018-04-26T12:58:07.624Z,94656
2018-04-26T12:59:08.166Z,55456
2018-04-26T13:00:08.743Z,46784
2018-04-26T13:01:09.319Z,45984
2018-04-26T13:02:11.098Z,55808
2018-04-26T13:03:11.687Z,60896
2018-04-26T13:04:12.273Z,54912
2018-04-26T13:05:12.853Z,107872
2018-04-26T13:06:13.452Z,103104
2018-04-26T13:07:14.018Z,103488
2018-04-26T13:08:14.605Z,99712
2018-04-26T13:09:15.183Z,86848
2018-04-26T13:10:15.752Z,99712
2018-04-26T13:11:16.744Z,43648
2018-04-26T13:12:17.328Z,34656
2018-04-26T13:13:17.917Z,32704
2018-04-26T13:14:18.502Z,35296
2018-04-26T13:15:19.081Z,26016
2018-04-26T13:16:19.664Z,24448
2018-04-26T13:17:20.333Z,23008
2018-04-26T13:18:20.813Z,23200
2018-04-26T13:19:21.390Z,22752
2018-04-26T13:20:21.970Z,19648
2018-04-26T13:21:22.561Z,16612
2018-04-26T13:22:23.122Z,13676
2018-04-26T13:23:24.063Z,11600
2018-04-26T13:24:24.607Z,11100
2018-04-26T13:25:25.181Z,12224
2018-04-26T13:26:25.986Z,13556
2018-04-26T13:27:26.614Z,14040
2018-04-26T13:28:27.363Z,14144
2018-04-26T13:29:27.940Z,15244
2018-04-26T13:30:28.746Z,17356
2018-04-26T13:31:29.309Z,19648
2018-04-26T13:32:29.886Z,21152
2018-04-26T13:33:30.658Z,20992
2018-04-26T13:34:31.230Z,20032
2018-04-26T13:35:31.818Z,19776